sensor_id;sensor_type;location;lat;lon;timestamp;pressure;altitude;pressure_sealevel;temperature;humidity
74334;BME280;62753;40.394;-80.022;2023-03-14T00:00:08;96957.44;;;3.31;42.19
74334;BME280;62753;40.394;-80.022;2023-03-14T00:02:31;96958.89;;;3.79;42.69
74334;BME280;62753;40.394;-80.022;2023-03-14T00:04:57;96966.03;;;3.37;42.08
74334;BME280;62753;40.394;-80.022;2023-03-14T00:07:22;96966.20;;;3.81;41.30
74334;BME280;62753;40.394;-80.022;2023-03-14T00:09:47;96964.34;;;3.69;40.97
74334;BME280;62753;40.394;-80.022;2023-03-14T00:12:13;96971.36;;;3.49;41.71
74334;BME280;62753;40.394;-80.022;2023-03-14T00:14:39;96971.34;;;3.60;40.80
74334;BME280;62753;40.394;-80.022;2023-03-14T00:17:04;96976.91;;;3.17;42.10
74334;BME280;62753;40.394;-80.022;2023-03-14T00:19:29;96977.43;;;2.78;41.97
74334;BME280;62753;40.394;-80.022;2023-03-14T00:21:55;96980.19;;;2.73;42.34
74334;BME280;62753;40.394;-80.022;2023-03-14T00:24:20;96982.19;;;3.23;41.24
74334;BME280;62753;40.394;-80.022;2023-03-14T00:26:45;96986.09;;;1.51;44.25
74334;BME280;62753;40.394;-80.022;2023-03-14T00:29:11;96987.70;;;2.32;44.02
74334;BME280;62753;40.394;-80.022;2023-03-14T00:31:36;96985.32;;;3.19;41.55
74334;BME280;62753;40.394;-80.022;2023-03-14T00:34:01;96986.05;;;3.26;41.59
74334;BME280;62753;40.394;-80.022;2023-03-14T00:36:27;96990.07;;;3.32;40.80
74334;BME280;62753;40.394;-80.022;2023-03-14T00:38:52;96991.59;;;3.27;40.65
74334;BME280;62753;40.394;-80.022;2023-03-14T00:41:18;96994.16;;;3.26;41.40
74334;BME280;62753;40.394;-80.022;2023-03-14T00:43:43;96996.07;;;3.19;40.95
74334;BME280;62753;40.394;-80.022;2023-03-14T00:46:08;96996.65;;;3.64;40.86
74334;BME280;62753;40.394;-80.022;2023-03-14T00:48:33;96995.39;;;3.11;41.29
74334;BME280;62753;40.394;-80.022;2023-03-14T00:50:59;96996.14;;;3.42;40.48
74334;BME280;62753;40.394;-80.022;2023-03-14T00:53:24;96997.09;;;3.68;40.17
74334;BME280;62753;40.394;-80.022;2023-03-14T00:55:50;97004.54;;;3.63;40.11
74334;BME280;62753;40.394;-80.022;2023-03-14T00:58:16;97000.98;;;3.52;39.76
74334;BME280;62753;40.394;-80.022;2023-03-14T01:00:40;97003.75;;;3.66;39.61
74334;BME280;62753;40.394;-80.022;2023-03-14T01:03:07;97003.63;;;4.51;38.49
74334;BME280;62753;40.394;-80.022;2023-03-14T01:05:31;97008.75;;;4.02;39.53
74334;BME280;62753;40.394;-80.022;2023-03-14T01:07:56;97006.65;;;3.24;39.71
74334;BME280;62753;40.394;-80.022;2023-03-14T01:10:22;97002.99;;;4.32;38.37
74334;BME280;62753;40.394;-80.022;2023-03-14T01:12:48;97003.27;;;4.75;37.19
74334;BME280;62753;40.394;-80.022;2023-03-14T01:15:13;97004.45;;;4.30;38.09
74334;BME280;62753;40.394;-80.022;2023-03-14T01:17:38;97011.60;;;3.54;39.67
74334;BME280;62753;40.394;-80.022;2023-03-14T01:20:04;97010.35;;;3.79;38.64
74334;BME280;62753;40.394;-80.022;2023-03-14T01:22:29;97015.93;;;3.19;40.26
74334;BME280;62753;40.394;-80.022;2023-03-14T01:24:54;97016.23;;;2.95;41.89
74334;BME280;62753;40.394;-80.022;2023-03-14T01:27:19;97018.37;;;2.13;43.38
74334;BME280;62753;40.394;-80.022;2023-03-14T01:29:45;97024.81;;;1.81;44.28
74334;BME280;62753;40.394;-80.022;2023-03-14T01:32:11;97020.96;;;2.95;43.36
74334;BME280;62753;40.394;-80.022;2023-03-14T01:34:36;97019.72;;;1.71;45.09
74334;BME280;62753;40.394;-80.022;2023-03-14T01:37:01;97030.72;;;2.03;44.32
74334;BME280;62753;40.394;-80.022;2023-03-14T01:39:27;97026.03;;;2.60;43.44
74334;BME280;62753;40.394;-80.022;2023-03-14T01:41:52;97027.74;;;2.21;43.93
74334;BME280;62753;40.394;-80.022;2023-03-14T01:44:18;97031.26;;;1.50;44.47
74334;BME280;62753;40.394;-80.022;2023-03-14T01:46:44;97027.00;;;2.26;43.63
74334;BME280;62753;40.394;-80.022;2023-03-14T01:49:15;97034.50;;;3.00;42.17
74334;BME280;62753;40.394;-80.022;2023-03-14T01:51:39;97032.67;;;3.44;41.34
74334;BME280;62753;40.394;-80.022;2023-03-14T01:54:04;97037.23;;;2.19;42.43
74334;BME280;62753;40.394;-80.022;2023-03-14T01:56:24;97035.85;;;2.74;41.18
74334;BME280;62753;40.394;-80.022;2023-03-14T01:58:51;97032.08;;;3.88;39.75
74334;BME280;62753;40.394;-80.022;2023-03-14T02:01:17;97031.09;;;3.79;39.98
74334;BME280;62753;40.394;-80.022;2023-03-14T02:03:47;97033.57;;;3.05;40.17
74334;BME280;62753;40.394;-80.022;2023-03-14T02:06:07;97035.77;;;3.17;40.96
74334;BME280;62753;40.394;-80.022;2023-03-14T02:08:31;97037.91;;;3.00;40.19
74334;BME280;62753;40.394;-80.022;2023-03-14T02:10:56;97036.94;;;3.33;39.74
74334;BME280;62753;40.394;-80.022;2023-03-14T02:13:23;97037.52;;;3.68;39.50
74334;BME280;62753;40.394;-80.022;2023-03-14T02:15:48;97045.05;;;2.54;41.24
74334;BME280;62753;40.394;-80.022;2023-03-14T02:18:14;97043.81;;;2.82;41.32
74334;BME280;62753;40.394;-80.022;2023-03-14T02:20:45;97041.94;;;2.64;41.61
74334;BME280;62753;40.394;-80.022;2023-03-14T02:23:04;97039.95;;;2.46;42.45
74334;BME280;62753;40.394;-80.022;2023-03-14T02:25:38;97041.08;;;2.83;42.70
74334;BME280;62753;40.394;-80.022;2023-03-14T02:27:55;97043.96;;;2.15;43.93
74334;BME280;62753;40.394;-80.022;2023-03-14T02:30:23;97041.08;;;1.72;44.02
74334;BME280;62753;40.394;-80.022;2023-03-14T02:32:50;97038.53;;;2.34;43.12
74334;BME280;62753;40.394;-80.022;2023-03-14T02:35:15;97037.10;;;2.15;43.40
74334;BME280;62753;40.394;-80.022;2023-03-14T02:37:40;97032.84;;;2.92;42.32
74334;BME280;62753;40.394;-80.022;2023-03-14T02:40:03;97030.96;;;1.99;43.64
74334;BME280;62753;40.394;-80.022;2023-03-14T02:42:27;97040.54;;;2.80;42.88
74334;BME280;62753;40.394;-80.022;2023-03-14T02:44:54;97033.94;;;2.75;42.23
74334;BME280;62753;40.394;-80.022;2023-03-14T02:47:20;97035.20;;;2.49;43.26
74334;BME280;62753;40.394;-80.022;2023-03-14T02:49:44;97029.42;;;3.42;41.15
74334;BME280;62753;40.394;-80.022;2023-03-14T02:52:10;97028.55;;;2.45;42.74
74334;BME280;62753;40.394;-80.022;2023-03-14T02:54:34;97031.53;;;2.47;44.10
74334;BME280;62753;40.394;-80.022;2023-03-14T02:57:00;97029.36;;;2.95;43.25
74334;BME280;62753;40.394;-80.022;2023-03-14T02:59:25;97032.00;;;1.66;46.50
74334;BME280;62753;40.394;-80.022;2023-03-14T03:01:51;97036.28;;;2.21;45.85
74334;BME280;62753;40.394;-80.022;2023-03-14T03:04:16;97036.38;;;1.56;46.20
74334;BME280;62753;40.394;-80.022;2023-03-14T03:06:42;97038.74;;;2.18;45.93
74334;BME280;62753;40.394;-80.022;2023-03-14T03:09:07;97037.10;;;2.32;46.82
74334;BME280;62753;40.394;-80.022;2023-03-14T03:11:32;97036.25;;;1.89;47.81
74334;BME280;62753;40.394;-80.022;2023-03-14T03:13:58;97031.43;;;2.46;46.24
74334;BME280;62753;40.394;-80.022;2023-03-14T03:16:23;97034.41;;;1.88;47.30
74334;BME280;62753;40.394;-80.022;2023-03-14T03:18:48;97032.02;;;1.76;46.97
74334;BME280;62753;40.394;-80.022;2023-03-14T03:21:13;97028.99;;;1.83;47.02
74334;BME280;62753;40.394;-80.022;2023-03-14T03:23:39;97028.04;;;1.59;47.92
74334;BME280;62753;40.394;-80.022;2023-03-14T03:26:05;97025.58;;;2.56;46.45
74334;BME280;62753;40.394;-80.022;2023-03-14T03:28:30;97020.01;;;2.53;44.79
74334;BME280;62753;40.394;-80.022;2023-03-14T03:30:56;97021.43;;;2.02;45.51
74334;BME280;62753;40.394;-80.022;2023-03-14T03:33:21;97020.19;;;2.45;44.90
74334;BME280;62753;40.394;-80.022;2023-03-14T03:35:47;97013.18;;;2.88;43.58
74334;BME280;62753;40.394;-80.022;2023-03-14T03:38:11;97013.34;;;2.82;43.24
74334;BME280;62753;40.394;-80.022;2023-03-14T03:40:36;97010.80;;;3.98;41.67
74334;BME280;62753;40.394;-80.022;2023-03-14T03:43:02;97006.42;;;3.72;42.21
74334;BME280;62753;40.394;-80.022;2023-03-14T03:45:28;97002.77;;;2.61;43.37
74334;BME280;62753;40.394;-80.022;2023-03-14T03:47:53;97001.13;;;2.20;43.90
74334;BME280;62753;40.394;-80.022;2023-03-14T03:50:18;96997.70;;;3.70;42.49
74334;BME280;62753;40.394;-80.022;2023-03-14T03:52:44;96997.08;;;3.23;42.87
74334;BME280;62753;40.394;-80.022;2023-03-14T03:55:09;96997.27;;;3.06;42.50
74334;BME280;62753;40.394;-80.022;2023-03-14T03:57:35;96994.60;;;2.26;44.39
74334;BME280;62753;40.394;-80.022;2023-03-14T04:00:00;96990.97;;;1.29;46.73
74334;BME280;62753;40.394;-80.022;2023-03-14T04:02:26;96993.43;;;0.45;49.14
74334;BME280;62753;40.394;-80.022;2023-03-14T04:04:52;96995.21;;;1.76;46.38
74334;BME280;62753;40.394;-80.022;2023-03-14T04:07:17;96993.28;;;1.30;46.62
74334;BME280;62753;40.394;-80.022;2023-03-14T04:09:43;96986.63;;;2.40;45.75
74334;BME280;62753;40.394;-80.022;2023-03-14T04:12:08;96988.65;;;1.88;46.46
74334;BME280;62753;40.394;-80.022;2023-03-14T04:14:33;96984.44;;;2.90;44.21
74334;BME280;62753;40.394;-80.022;2023-03-14T04:16:59;96981.72;;;2.54;44.92
74334;BME280;62753;40.394;-80.022;2023-03-14T04:19:24;96978.15;;;2.48;44.83
74334;BME280;62753;40.394;-80.022;2023-03-14T04:21:50;96980.55;;;1.97;46.38
74334;BME280;62753;40.394;-80.022;2023-03-14T04:24:15;96974.46;;;3.03;44.39
74334;BME280;62753;40.394;-80.022;2023-03-14T04:26:41;96971.03;;;2.62;44.65
74334;BME280;62753;40.394;-80.022;2023-03-14T04:29:06;96970.89;;;3.08;44.60
74334;BME280;62753;40.394;-80.022;2023-03-14T04:31:31;96968.02;;;3.04;44.88
74334;BME280;62753;40.394;-80.022;2023-03-14T04:33:58;96968.57;;;2.10;45.70
74334;BME280;62753;40.394;-80.022;2023-03-14T04:36:22;96967.49;;;1.26;51.80
74334;BME280;62753;40.394;-80.022;2023-03-14T04:38:47;96967.68;;;0.88;49.86
74334;BME280;62753;40.394;-80.022;2023-03-14T04:41:13;96958.82;;;1.37;50.01
74334;BME280;62753;40.394;-80.022;2023-03-14T04:43:39;96960.70;;;2.04;48.84
74334;BME280;62753;40.394;-80.022;2023-03-14T04:46:05;96956.79;;;1.34;49.24
74334;BME280;62753;40.394;-80.022;2023-03-14T04:48:29;96956.70;;;0.70;49.69
74334;BME280;62753;40.394;-80.022;2023-03-14T04:50:56;96958.00;;;1.30;50.01
74334;BME280;62753;40.394;-80.022;2023-03-14T04:53:21;96963.26;;;1.71;49.00
74334;BME280;62753;40.394;-80.022;2023-03-14T04:55:48;96956.16;;;2.43;47.44
74334;BME280;62753;40.394;-80.022;2023-03-14T04:58:12;96959.15;;;1.44;48.26
74334;BME280;62753;40.394;-80.022;2023-03-14T05:00:38;96956.88;;;1.78;47.96
74334;BME280;62753;40.394;-80.022;2023-03-14T05:03:04;96961.62;;;1.97;49.05
74334;BME280;62753;40.394;-80.022;2023-03-14T05:05:29;96961.96;;;1.63;48.91
74334;BME280;62753;40.394;-80.022;2023-03-14T05:07:54;96963.73;;;1.18;51.69
74334;BME280;62753;40.394;-80.022;2023-03-14T05:10:20;96969.73;;;1.88;49.44
74334;BME280;62753;40.394;-80.022;2023-03-14T05:12:46;96968.56;;;1.81;50.24
74334;BME280;62753;40.394;-80.022;2023-03-14T05:15:12;96964.57;;;1.05;52.54
74334;BME280;62753;40.394;-80.022;2023-03-14T05:17:37;96973.07;;;1.90;50.09
74334;BME280;62753;40.394;-80.022;2023-03-14T05:20:03;96976.78;;;1.74;49.66
74334;BME280;62753;40.394;-80.022;2023-03-14T05:22:28;96981.19;;;1.82;49.19
74334;BME280;62753;40.394;-80.022;2023-03-14T05:24:53;96977.04;;;1.27;50.60
74334;BME280;62753;40.394;-80.022;2023-03-14T05:27:19;96975.46;;;0.93;51.82
74334;BME280;62753;40.394;-80.022;2023-03-14T05:29:45;96971.15;;;1.10;51.98
74334;BME280;62753;40.394;-80.022;2023-03-14T05:32:10;96973.58;;;0.72;53.26
74334;BME280;62753;40.394;-80.022;2023-03-14T05:34:36;96979.86;;;0.77;52.71
74334;BME280;62753;40.394;-80.022;2023-03-14T05:37:01;96981.37;;;0.49;53.48
74334;BME280;62753;40.394;-80.022;2023-03-14T05:39:27;96980.48;;;0.21;55.53
74334;BME280;62753;40.394;-80.022;2023-03-14T05:41:52;96981.35;;;0.38;54.32
74334;BME280;62753;40.394;-80.022;2023-03-14T05:44:18;96980.28;;;1.30;51.88
74334;BME280;62753;40.394;-80.022;2023-03-14T05:46:43;96977.97;;;0.77;52.60
74334;BME280;62753;40.394;-80.022;2023-03-14T05:49:09;96977.73;;;0.21;54.00
74334;BME280;62753;40.394;-80.022;2023-03-14T05:51:34;96982.27;;;0.60;52.97
74334;BME280;62753;40.394;-80.022;2023-03-14T05:54:01;96985.17;;;0.67;53.20
74334;BME280;62753;40.394;-80.022;2023-03-14T05:56:26;96989.33;;;0.20;54.39
74334;BME280;62753;40.394;-80.022;2023-03-14T05:58:51;96992.72;;;1.28;51.24
74334;BME280;62753;40.394;-80.022;2023-03-14T06:01:16;96990.14;;;1.40;49.00
74334;BME280;62753;40.394;-80.022;2023-03-14T06:03:42;96994.41;;;0.64;50.78
74334;BME280;62753;40.394;-80.022;2023-03-14T06:06:08;97005.58;;;1.08;49.09
74334;BME280;62753;40.394;-80.022;2023-03-14T06:08:33;97008.52;;;1.35;47.69
74334;BME280;62753;40.394;-80.022;2023-03-14T06:10:59;97015.43;;;2.84;46.14
74334;BME280;62753;40.394;-80.022;2023-03-14T06:13:25;97022.67;;;1.70;47.06
74334;BME280;62753;40.394;-80.022;2023-03-14T06:15:50;97024.57;;;1.81;46.48
74334;BME280;62753;40.394;-80.022;2023-03-14T06:18:16;97021.91;;;2.29;46.27
74334;BME280;62753;40.394;-80.022;2023-03-14T06:20:42;97019.52;;;2.72;44.89
74334;BME280;62753;40.394;-80.022;2023-03-14T06:23:09;97017.84;;;2.67;44.35
74334;BME280;62753;40.394;-80.022;2023-03-14T06:25:34;97022.68;;;1.98;46.46
74334;BME280;62753;40.394;-80.022;2023-03-14T06:27:59;97025.78;;;1.82;46.54
74334;BME280;62753;40.394;-80.022;2023-03-14T06:30:25;97031.68;;;2.24;44.47
74334;BME280;62753;40.394;-80.022;2023-03-14T06:32:50;97030.00;;;2.88;43.39
74334;BME280;62753;40.394;-80.022;2023-03-14T06:35:16;97036.22;;;2.26;43.49
74334;BME280;62753;40.394;-80.022;2023-03-14T06:37:42;97029.36;;;3.18;41.59
74334;BME280;62753;40.394;-80.022;2023-03-14T06:40:09;97032.66;;;2.71;41.68
74334;BME280;62753;40.394;-80.022;2023-03-14T06:42:33;97042.66;;;2.35;42.09
74334;BME280;62753;40.394;-80.022;2023-03-14T06:44:58;97042.67;;;2.01;43.21
74334;BME280;62753;40.394;-80.022;2023-03-14T06:47:24;97046.92;;;2.22;42.92
74334;BME280;62753;40.394;-80.022;2023-03-14T06:49:50;97049.53;;;2.52;42.53
74334;BME280;62753;40.394;-80.022;2023-03-14T06:52:16;97038.87;;;1.55;44.11
74334;BME280;62753;40.394;-80.022;2023-03-14T06:54:41;97048.83;;;1.19;45.43
74334;BME280;62753;40.394;-80.022;2023-03-14T06:57:07;97048.48;;;1.21;45.39
74334;BME280;62753;40.394;-80.022;2023-03-14T06:59:33;97049.78;;;0.67;46.01
74334;BME280;62753;40.394;-80.022;2023-03-14T07:01:58;97051.50;;;1.54;44.33
74334;BME280;62753;40.394;-80.022;2023-03-14T07:04:24;97053.20;;;1.84;44.76
74334;BME280;62753;40.394;-80.022;2023-03-14T07:06:50;97050.62;;;0.61;45.29
74334;BME280;62753;40.394;-80.022;2023-03-14T07:09:16;97054.51;;;0.80;44.28
74334;BME280;62753;40.394;-80.022;2023-03-14T07:11:41;97053.11;;;1.52;41.98
74334;BME280;62753;40.394;-80.022;2023-03-14T07:14:07;97049.98;;;1.15;43.07
74334;BME280;62753;40.394;-80.022;2023-03-14T07:16:33;97060.34;;;0.89;43.23
74334;BME280;62753;40.394;-80.022;2023-03-14T07:18:58;97055.33;;;1.90;41.04
74334;BME280;62753;40.394;-80.022;2023-03-14T07:21:24;97057.52;;;1.84;40.71
74334;BME280;62753;40.394;-80.022;2023-03-14T07:23:50;97058.16;;;1.59;41.01
74334;BME280;62753;40.394;-80.022;2023-03-14T07:26:16;97062.15;;;1.56;40.10
74334;BME280;62753;40.394;-80.022;2023-03-14T07:28:41;97064.83;;;1.36;41.04
74334;BME280;62753;40.394;-80.022;2023-03-14T07:31:07;97060.49;;;1.46;40.47
74334;BME280;62753;40.394;-80.022;2023-03-14T07:33:33;97053.23;;;1.11;41.36
74334;BME280;62753;40.394;-80.022;2023-03-14T07:35:58;97062.61;;;1.95;40.11
74334;BME280;62753;40.394;-80.022;2023-03-14T07:38:24;97067.25;;;2.29;38.62
74334;BME280;62753;40.394;-80.022;2023-03-14T07:40:50;97064.01;;;1.64;39.01
74334;BME280;62753;40.394;-80.022;2023-03-14T07:43:15;97055.14;;;1.68;39.21
74334;BME280;62753;40.394;-80.022;2023-03-14T07:45:41;97051.70;;;0.92;40.31
74334;BME280;62753;40.394;-80.022;2023-03-14T07:48:07;97056.69;;;1.77;40.38
74334;BME280;62753;40.394;-80.022;2023-03-14T07:50:33;97054.47;;;1.34;39.87
74334;BME280;62753;40.394;-80.022;2023-03-14T07:52:58;97056.09;;;2.28;38.59
74334;BME280;62753;40.394;-80.022;2023-03-14T07:55:24;97052.09;;;2.30;37.49
74334;BME280;62753;40.394;-80.022;2023-03-14T07:57:50;97052.60;;;2.71;36.94
74334;BME280;62753;40.394;-80.022;2023-03-14T08:00:16;97051.71;;;1.14;37.83
74334;BME280;62753;40.394;-80.022;2023-03-14T08:02:41;97052.17;;;1.85;37.41
74334;BME280;62753;40.394;-80.022;2023-03-14T08:05:09;97048.80;;;1.57;38.08
74334;BME280;62753;40.394;-80.022;2023-03-14T08:07:32;97046.74;;;0.42;39.32
74334;BME280;62753;40.394;-80.022;2023-03-14T08:09:58;97054.36;;;0.26;40.04
74334;BME280;62753;40.394;-80.022;2023-03-14T08:12:24;97049.07;;;0.89;38.75
74334;BME280;62753;40.394;-80.022;2023-03-14T08:14:49;97051.06;;;0.72;38.52
74334;BME280;62753;40.394;-80.022;2023-03-14T08:17:15;97055.77;;;-0.14;40.27
74334;BME280;62753;40.394;-80.022;2023-03-14T08:19:41;97054.97;;;0.67;39.65
74334;BME280;62753;40.394;-80.022;2023-03-14T08:22:07;97057.17;;;0.07;39.22
74334;BME280;62753;40.394;-80.022;2023-03-14T08:24:33;97058.07;;;0.17;39.24
74334;BME280;62753;40.394;-80.022;2023-03-14T08:26:58;97059.62;;;-0.10;39.76
74334;BME280;62753;40.394;-80.022;2023-03-14T08:29:24;97057.92;;;0.08;39.68
74334;BME280;62753;40.394;-80.022;2023-03-14T08:31:50;97061.99;;;0.06;39.63
74334;BME280;62753;40.394;-80.022;2023-03-14T08:34:15;97056.48;;;-0.41;39.99
74334;BME280;62753;40.394;-80.022;2023-03-14T08:36:41;97061.82;;;-0.80;40.20
74334;BME280;62753;40.394;-80.022;2023-03-14T08:39:07;97062.36;;;0.60;38.26
74334;BME280;62753;40.394;-80.022;2023-03-14T08:41:33;97059.64;;;1.21;36.70
74334;BME280;62753;40.394;-80.022;2023-03-14T08:43:58;97058.91;;;0.95;36.44
74334;BME280;62753;40.394;-80.022;2023-03-14T08:46:24;97059.98;;;0.45;36.96
74334;BME280;62753;40.394;-80.022;2023-03-14T08:48:50;97058.46;;;0.55;37.15
74334;BME280;62753;40.394;-80.022;2023-03-14T08:51:16;97060.35;;;0.58;36.46
74334;BME280;62753;40.394;-80.022;2023-03-14T08:53:42;97061.06;;;0.95;35.78
74334;BME280;62753;40.394;-80.022;2023-03-14T08:56:08;97065.12;;;1.14;35.71
74334;BME280;62753;40.394;-80.022;2023-03-14T08:58:33;97067.52;;;0.53;36.15
74334;BME280;62753;40.394;-80.022;2023-03-14T09:00:59;97072.92;;;0.55;36.56
74334;BME280;62753;40.394;-80.022;2023-03-14T09:03:25;97078.79;;;0.87;36.32
74334;BME280;62753;40.394;-80.022;2023-03-14T09:05:51;97081.09;;;0.41;36.90
74334;BME280;62753;40.394;-80.022;2023-03-14T09:08:16;97083.53;;;0.45;37.07
74334;BME280;62753;40.394;-80.022;2023-03-14T09:10:42;97091.45;;;0.34;36.92
74334;BME280;62753;40.394;-80.022;2023-03-14T09:13:07;97098.50;;;0.06;37.67
74334;BME280;62753;40.394;-80.022;2023-03-14T09:15:33;97093.71;;;-0.24;38.52
74334;BME280;62753;40.394;-80.022;2023-03-14T09:17:59;97094.67;;;-0.06;38.27
74334;BME280;62753;40.394;-80.022;2023-03-14T09:20:25;97100.27;;;-0.29;37.96
74334;BME280;62753;40.394;-80.022;2023-03-14T09:22:50;97112.83;;;0.47;37.03
74334;BME280;62753;40.394;-80.022;2023-03-14T09:25:16;97110.12;;;-0.17;37.38
74334;BME280;62753;40.394;-80.022;2023-03-14T09:27:42;97114.84;;;0.11;36.85
74334;BME280;62753;40.394;-80.022;2023-03-14T09:30:09;97116.09;;;0.69;36.47
74334;BME280;62753;40.394;-80.022;2023-03-14T09:32:34;97118.47;;;0.92;35.83
74334;BME280;62753;40.394;-80.022;2023-03-14T09:35:00;97121.80;;;1.51;35.08
74334;BME280;62753;40.394;-80.022;2023-03-14T09:37:25;97126.71;;;1.12;35.17
74334;BME280;62753;40.394;-80.022;2023-03-14T09:39:51;97130.12;;;0.64;35.95
74334;BME280;62753;40.394;-80.022;2023-03-14T09:42:19;97132.10;;;0.79;36.19
74334;BME280;62753;40.394;-80.022;2023-03-14T09:44:51;97133.92;;;1.27;35.46
74334;BME280;62753;40.394;-80.022;2023-03-14T09:47:12;97133.93;;;-0.14;37.22
74334;BME280;62753;40.394;-80.022;2023-03-14T09:49:36;97140.42;;;-0.50;37.97
74334;BME280;62753;40.394;-80.022;2023-03-14T09:52:02;97143.16;;;0.50;37.44
74334;BME280;62753;40.394;-80.022;2023-03-14T09:54:32;97142.02;;;0.44;37.10
74334;BME280;62753;40.394;-80.022;2023-03-14T09:56:51;97147.18;;;0.72;36.80
74334;BME280;62753;40.394;-80.022;2023-03-14T09:59:17;97149.60;;;-0.19;37.57
74334;BME280;62753;40.394;-80.022;2023-03-14T10:01:42;97144.65;;;0.77;35.99
74334;BME280;62753;40.394;-80.022;2023-03-14T10:04:14;97145.30;;;1.38;35.62
74334;BME280;62753;40.394;-80.022;2023-03-14T10:06:34;97146.11;;;-0.07;37.08
74334;BME280;62753;40.394;-80.022;2023-03-14T10:09:00;97154.84;;;1.15;36.27
74334;BME280;62753;40.394;-80.022;2023-03-14T10:11:25;97157.86;;;-0.29;38.11
74334;BME280;62753;40.394;-80.022;2023-03-14T10:14:03;97166.05;;;0.09;37.78
74334;BME280;62753;40.394;-80.022;2023-03-14T10:16:17;97164.11;;;1.22;36.15
74334;BME280;62753;40.394;-80.022;2023-03-14T10:18:45;97161.97;;;0.75;35.86
74334;BME280;62753;40.394;-80.022;2023-03-14T10:21:28;97168.22;;;1.32;35.61
74334;BME280;62753;40.394;-80.022;2023-03-14T10:23:35;97159.28;;;0.87;35.58
74334;BME280;62753;40.394;-80.022;2023-03-14T10:26:06;97161.24;;;1.52;35.60
74334;BME280;62753;40.394;-80.022;2023-03-14T10:28:27;97166.76;;;1.20;35.14
74334;BME280;62753;40.394;-80.022;2023-03-14T10:30:51;97175.72;;;1.85;34.70
74334;BME280;62753;40.394;-80.022;2023-03-14T10:33:21;97183.84;;;2.43;34.15
74334;BME280;62753;40.394;-80.022;2023-03-14T10:35:43;97188.49;;;1.16;35.27
74334;BME280;62753;40.394;-80.022;2023-03-14T10:38:12;97190.06;;;1.22;35.94
74334;BME280;62753;40.394;-80.022;2023-03-14T10:40:38;97196.21;;;0.81;35.82
74334;BME280;62753;40.394;-80.022;2023-03-14T10:43:04;97192.65;;;1.20;35.76
74334;BME280;62753;40.394;-80.022;2023-03-14T10:45:31;97196.08;;;1.21;35.51
74334;BME280;62753;40.394;-80.022;2023-03-14T10:47:52;97200.36;;;0.96;35.59
74334;BME280;62753;40.394;-80.022;2023-03-14T10:50:25;97203.03;;;1.01;35.88
74334;BME280;62753;40.394;-80.022;2023-03-14T10:52:47;97201.02;;;1.19;35.70
74334;BME280;62753;40.394;-80.022;2023-03-14T10:55:12;97199.77;;;1.84;34.71
74334;BME280;62753;40.394;-80.022;2023-03-14T10:57:38;97198.59;;;1.93;33.86
74334;BME280;62753;40.394;-80.022;2023-03-14T11:00:00;97205.82;;;1.01;35.08
74334;BME280;62753;40.394;-80.022;2023-03-14T11:02:39;97207.61;;;1.19;35.22
74334;BME280;62753;40.394;-80.022;2023-03-14T11:05:01;97211.74;;;1.11;35.70
74334;BME280;62753;40.394;-80.022;2023-03-14T11:07:23;97215.66;;;1.27;34.98
74334;BME280;62753;40.394;-80.022;2023-03-14T11:09:47;97216.54;;;1.81;34.65
74334;BME280;62753;40.394;-80.022;2023-03-14T11:12:20;97215.46;;;1.24;35.22
74334;BME280;62753;40.394;-80.022;2023-03-14T11:14:38;97224.55;;;1.24;34.49
74334;BME280;62753;40.394;-80.022;2023-03-14T11:17:04;97230.87;;;1.22;35.38
74334;BME280;62753;40.394;-80.022;2023-03-14T11:19:36;97235.74;;;0.49;37.11
74334;BME280;62753;40.394;-80.022;2023-03-14T11:21:56;97245.58;;;-0.29;39.89
74334;BME280;62753;40.394;-80.022;2023-03-14T11:24:27;97242.49;;;0.59;38.92
74334;BME280;62753;40.394;-80.022;2023-03-14T11:26:48;97242.35;;;0.82;38.15
74334;BME280;62753;40.394;-80.022;2023-03-14T11:29:19;97239.95;;;0.54;38.22
74334;BME280;62753;40.394;-80.022;2023-03-14T11:31:35;97238.44;;;0.20;38.59
74334;BME280;62753;40.394;-80.022;2023-03-14T11:34:04;97243.28;;;0.46;38.73
74334;BME280;62753;40.394;-80.022;2023-03-14T11:36:30;97240.21;;;0.59;39.94
74334;BME280;62753;40.394;-80.022;2023-03-14T11:38:55;97243.97;;;-0.31;40.49
74334;BME280;62753;40.394;-80.022;2023-03-14T11:41:22;97247.84;;;-0.03;40.88
74334;BME280;62753;40.394;-80.022;2023-03-14T11:43:47;97243.79;;;0.33;40.16
74334;BME280;62753;40.394;-80.022;2023-03-14T11:46:16;97247.21;;;0.30;39.92
74334;BME280;62753;40.394;-80.022;2023-03-14T11:48:40;97250.71;;;0.47;39.25
74334;BME280;62753;40.394;-80.022;2023-03-14T11:51:04;97255.46;;;0.99;39.23
74334;BME280;62753;40.394;-80.022;2023-03-14T11:53:42;97253.71;;;0.58;38.82
74334;BME280;62753;40.394;-80.022;2023-03-14T11:55:53;97257.29;;;1.09;38.78
74334;BME280;62753;40.394;-80.022;2023-03-14T11:58:22;97259.45;;;1.17;38.10
74334;BME280;62753;40.394;-80.022;2023-03-14T12:00:45;97258.58;;;1.78;37.12
74334;BME280;62753;40.394;-80.022;2023-03-14T12:03:17;97260.78;;;2.07;36.45
74334;BME280;62753;40.394;-80.022;2023-03-14T12:05:44;97263.82;;;1.89;36.59
74334;BME280;62753;40.394;-80.022;2023-03-14T12:08:21;97264.00;;;2.18;35.73
74334;BME280;62753;40.394;-80.022;2023-03-14T12:10:27;97269.05;;;1.18;36.49
74334;BME280;62753;40.394;-80.022;2023-03-14T12:12:52;97270.20;;;1.71;37.24
74334;BME280;62753;40.394;-80.022;2023-03-14T12:15:21;97275.58;;;1.66;37.11
74334;BME280;62753;40.394;-80.022;2023-03-14T12:17:44;97275.12;;;1.73;37.22
74334;BME280;62753;40.394;-80.022;2023-03-14T12:20:16;97280.15;;;1.37;38.70
74334;BME280;62753;40.394;-80.022;2023-03-14T12:22:41;97288.40;;;1.53;37.82
74334;BME280;62753;40.394;-80.022;2023-03-14T12:25:05;97288.07;;;1.48;38.27
74334;BME280;62753;40.394;-80.022;2023-03-14T12:27:47;97290.74;;;1.68;37.66
74334;BME280;62753;40.394;-80.022;2023-03-14T12:29:59;97292.81;;;0.69;39.50
74334;BME280;62753;40.394;-80.022;2023-03-14T12:32:23;97296.65;;;0.49;40.46
74334;BME280;62753;40.394;-80.022;2023-03-14T12:34:44;97298.75;;;0.52;40.29
74334;BME280;62753;40.394;-80.022;2023-03-14T12:37:24;97305.06;;;-0.01;41.94
74334;BME280;62753;40.394;-80.022;2023-03-14T12:39:41;97305.25;;;0.06;41.51